Ana Sayfa
METAR-TAF:

METAR-TAF

Havaalanları :

Nassau, Bahamalar

Enlem: 25-03N, Boylam: 077-28W, yükseklik: 3 m

Güncel hava durumu gözlemi

Rapor saat 03:00 UTC de 17 dakika önce yapıldı.
Rüzgar güney/güneydoğudan 8 kt
Sıcaklık 24°C
Nem 78%
Basınç 1021 hPa
Görüş mesafesi 10 km veya daha fazla
1500 m altında bulut yok ve kümülonimbus yok

METAR: MYNN 240300Z 15008KT CAVOK 24/20 A3016

Saat: 22:17 (03:17 UTC)

Tahmin

Rapor saat 21:40 UTC de 5 saat ve 37 dakika önce yapıldı.
Ayın 24'si saat 00 UTC'den ayın 24'si saat 24 UTC'ye kadar geçerli Tahmin
Rüzgar güneydan 18 kt
Görüş mesafesi 10 km veya daha fazla
2400 ft yükseklikte parçalı bulutlu

TAF: MYNN 232140Z 2400/2424 17018KT 9999 SCT024

4.000'den fazla havaalanı için hava durumu gözlemleri ve tahminleri (METAR ve TAF raporları).

Kullanılabilir istasyonlar harita üzerinde sarı ve kırmızı noktalarla gösterilir.

İstasyonun adını görmek için fareyi noktanın üzerinde gezdirin.

Sonrasında hava gözlem ve tahminlerini görmek için tıklayın.

Haritayı değiştirmek için: yaklaştırmak için siyah artı işaretli yeşil düğmeye ve uzaklaştırmak için de eksi işaretli düğmeye hızla tıklayın; bitişik haritalar için yeşil okları kullanın.


METAR-TAF: